Time;durP1;ratioP1;P1;durP2;ratioP2;P2;SDS_P1;SDS_P2;PMS_P1;PMS_P2;Temp;Humidity;BMP_temperature;BMP_pressure;BME280_temperature;BME280_humidity;BME280_pressure;Samples;Min_cycle;Max_cycle;Signal;HPM_P1;HPM_P2
2021/12/14 00:00:55;;;;;;;5.40;5.10;;;;;;;7.84;82.01;102299.66;5116024;28;20176;-72
2021/12/14 00:03:27;;;;;;;5.33;4.93;;;;;;;7.83;82.31;102292.72;5116163;28;20193;-72
2021/12/14 00:05:54;;;;;;;5.33;5.23;;;;;;;7.97;81.67;102293.50;5116188;28;20185;-72
2021/12/14 00:08:23;;;;;;;3.87;3.87;;;;;;;7.89;82.00;102290.06;5115730;28;20223;-72
2021/12/14 00:16:30;;;;;;;4.77;4.67;;;;;;;7.83;82.56;102287.50;5075212;28;20192;-73
2021/12/14 00:19:01;;;;;;;5.00;4.90;;;;;;;7.77;82.85;102290.13;5115551;28;20303;-72
2021/12/14 00:21:30;;;;;;;6.03;5.77;;;;;;;7.77;83.03;102287.50;5115727;28;20201;-72
2021/12/14 00:24:07;;;;;;;5.50;5.30;;;;;;;7.73;83.30;102289.28;5115442;28;20212;-72
2021/12/14 00:26:49;;;;;;;5.63;5.50;;;;;;;7.80;83.10;102295.34;5116053;28;20192;-72
2021/12/14 00:29:19;;;;;;;6.83;6.50;;;;;;;7.72;83.42;102282.34;5097144;28;20221;-72
2021/12/14 00:31:47;;;;;;;6.83;6.37;;;;;;;7.75;83.24;102291.88;5115644;28;20183;-72
2021/12/14 00:34:22;;;;;;;7.77;7.10;;;;;;;7.78;83.48;102294.47;5097016;28;20555;-72
2021/12/14 00:36:50;;;;;;;5.27;5.17;;;;;;;7.87;83.08;102302.25;5115788;28;20184;-73
2021/12/14 00:39:17;;;;;;;7.17;6.50;;;;;;;7.79;83.39;102296.22;5097126;28;20323;-72
2021/12/14 00:41:44;;;;;;;6.50;6.30;;;;;;;7.75;83.86;102278.84;5096884;28;20197;-72
2021/12/14 00:44:11;;;;;;;6.80;6.27;;;;;;;7.85;83.33;102272.69;5096785;28;20213;-73
2021/12/14 00:46:39;;;;;;;6.33;6.00;;;;;;;7.80;83.43;102291.88;5096790;28;20193;-73
2021/12/14 00:49:08;;;;;;;7.47;7.17;;;;;;;7.81;83.57;102280.56;5115017;28;20233;-72
2021/12/14 00:51:35;;;;;;;7.07;6.63;;;;;;;7.86;83.35;102282.28;5115528;28;20189;-72
2021/12/14 00:54:05;;;;;;;7.47;7.10;;;;;;;7.73;83.71;102278.00;5115208;28;20170;-73
2021/12/14 00:56:34;;;;;;;7.87;7.40;;;;;;;7.73;83.73;102284.06;5114470;28;20177;-73
2021/12/14 00:59:04;;;;;;;6.40;6.10;;;;;;;7.75;83.78;102273.63;5096589;28;20209;-73
2021/12/14 01:01:38;;;;;;;7.80;7.17;;;;;;;7.77;83.74;102271.00;5096750;28;20189;-73
2021/12/14 01:04:08;;;;;;;6.10;5.87;;;;;;;7.71;83.92;102269.28;5115255;28;20193;-73
2021/12/14 01:06:44;;;;;;;6.23;5.73;;;;;;;7.69;84.17;102264.09;5096439;28;20215;-73
2021/12/14 01:09:20;;;;;;;6.80;6.60;;;;;;;7.77;83.71;102264.03;5130483;27;20208;-73
2021/12/14 01:11:49;;;;;;;6.13;5.73;;;;;;;7.82;83.59;102271.84;5114889;28;20255;-73
2021/12/14 01:14:32;;;;;;;7.33;7.03;;;;;;;7.79;83.74;102277.97;5096297;28;20647;-73
2021/12/14 01:17:12;;;;;;;6.60;6.37;;;;;;;7.78;83.57;102278.81;5114811;28;20534;-72
2021/12/14 01:19:42;;;;;;;7.87;7.33;;;;;;;7.68;84.28;102272.78;5096207;28;20209;-69
2021/12/14 01:22:39;;;;;;;7.30;6.70;;;;;;;7.74;83.87;102271.91;5115607;28;20263;-69
2021/12/14 01:25:13;;;;;;;5.93;5.73;;;;;;;7.80;83.90;102266.66;5130175;27;20197;-69
2021/12/14 01:27:49;;;;;;;6.90;6.67;;;;;;;7.67;84.28;102260.63;5096033;28;20191;-69
2021/12/14 01:30:22;;;;;;;7.93;5.97;;;;;;;7.68;84.42;102266.72;5096139;28;20189;-72
2021/12/14 01:32:50;;;;;;;5.67;5.47;;;;;;;7.70;84.14;102265.81;5130063;27;20185;-73
2021/12/14 01:35:21;;;;;;;5.57;5.37;;;;;;;7.66;84.43;102268.47;5114179;28;20557;-73
2021/12/14 01:38:04;;;;;;;5.83;5.63;;;;;;;7.82;84.04;102277.06;5114051;28;20165;-72
2021/12/14 01:40:54;;;;;;;5.60;5.37;;;;;;;7.84;83.96;102297.03;5095927;28;20222;-72
2021/12/14 01:43:50;;;;;;;4.67;4.47;;;;;;;7.83;84.07;102308.34;5095738;28;20299;-72
2021/12/14 01:46:29;;;;;;;6.20;6.00;;;;;;;7.79;84.44;102316.22;5095807;28;20212;-72
2021/12/14 01:49:14;;;;;;;9.80;6.57;;;;;;;7.70;84.93;102310.13;5095775;28;20216;-73
2021/12/14 01:51:49;;;;;;;6.13;5.80;;;;;;;7.71;85.01;102305.78;5096348;28;20235;-70
2021/12/14 01:54:30;;;;;;;6.13;5.97;;;;;;;7.75;84.76;102301.44;5095757;28;20650;-69
2021/12/14 01:56:57;;;;;;;5.23;5.03;;;;;;;7.69;85.07;102299.72;5078959;28;20185;-69
2021/12/14 01:59:35;;;;;;;6.23;5.83;;;;;;;7.70;85.22;102302.31;5095529;28;20246;-69
2021/12/14 02:04:44;;;;;;;8.93;7.27;;;;;;;7.85;84.81;102296.16;5114305;28;20196;-69
2021/12/14 02:07:13;;;;;;;6.53;6.23;;;;;;;7.75;84.92;102275.38;5094573;28;20193;-69
2021/12/14 02:09:43;;;;;;;7.33;6.70;;;;;;;7.75;85.15;102271.03;5095491;28;20265;-69
2021/12/14 02:12:14;;;;;;;6.57;6.20;;;;;;;7.66;85.59;102271.06;5113970;28;20556;-69
2021/12/14 02:14:41;;;;;;;6.90;6.60;;;;;;;7.65;85.79;102272.81;5096266;28;20257;-69
2021/12/14 02:17:12;;;;;;;6.93;6.60;;;;;;;7.66;85.63;102268.47;5095492;28;20564;-69
2021/12/14 02:19:40;;;;;;;7.23;6.70;;;;;;;7.68;85.65;102257.16;5095702;28;20609;-70
2021/12/14 02:22:08;;;;;;;6.40;6.27;;;;;;;7.72;85.91;102253.66;5078574;28;20204;-70
2021/12/14 02:24:37;;;;;;;7.20;6.63;;;;;;;7.73;85.88;102246.72;5095915;28;20208;-73
2021/12/14 02:27:04;;;;;;;6.50;6.13;;;;;;;7.61;86.38;102238.94;5114488;28;20181;-70
2021/12/14 02:29:35;;;;;;;6.53;6.23;;;;;;;7.68;86.19;102241.50;5095853;28;20234;-70
2021/12/14 02:32:20;;;;;;;5.90;5.60;;;;;;;7.66;85.87;102239.78;5095334;28;20268;-70
2021/12/14 02:34:51;;;;;;;6.17;5.87;;;;;;;7.68;85.97;102214.56;5113584;28;20177;-70
2021/12/14 02:37:33;;;;;;;6.57;6.37;;;;;;;7.72;85.85;102224.97;5095561;28;20195;-70
2021/12/14 02:40:03;;;;;;;6.23;5.93;;;;;;;7.69;85.94;102217.16;5095234;28;20642;-70
2021/12/14 02:42:32;;;;;;;6.77;6.33;;;;;;;7.70;85.79;102211.06;5095546;28;20192;-70
2021/12/14 02:44:59;;;;;;;8.57;6.07;;;;;;;7.58;86.24;102202.47;5113306;28;20212;-70
2021/12/14 02:47:27;;;;;;;6.13;5.97;;;;;;;7.52;86.59;102199.88;5095168;28;20280;-69
2021/12/14 02:49:54;;;;;;;7.43;6.83;;;;;;;7.60;86.65;102227.66;5129137;28;20217;-70
2021/12/14 02:52:32;;;;;;;5.40;5.20;;;;;;;7.53;86.88;102223.34;5095160;28;20306;-70
2021/12/14 02:55:05;;;;;;;7.20;7.00;;;;;;;7.57;86.56;102226.78;5095000;28;20185;-70
2021/12/14 02:57:36;;;;;;;5.80;5.70;;;;;;;7.50;87.17;102227.69;5130098;28;20187;-70
2021/12/14 03:00:08;;;;;;;7.07;6.77;;;;;;;7.60;87.30;102224.16;5113482;28;20252;-70
2021/12/14 03:02:35;;;;;;;6.30;5.97;;;;;;;7.60;87.67;102225.03;5078235;28;20186;-70
2021/12/14 03:05:09;;;;;;;7.27;7.07;;;;;;;7.65;87.98;102225.88;5094935;28;20207;-70
2021/12/14 03:07:43;;;;;;;6.50;6.30;;;;;;;7.66;88.33;102216.31;5094989;28;20189;-69
2021/12/14 03:12:52;;;;;;;8.67;7.93;;;;;;;7.64;88.33;102202.41;5113194;28;20177;-70
2021/12/14 03:15:23;;;;;;;8.83;7.47;;;;;;;7.59;88.59;102192.03;5094958;28;20268;-70
2021/12/14 03:17:54;;;;;;;6.93;6.37;;;;;;;7.54;88.50;102182.50;5095303;28;20185;-70
2021/12/14 03:20:26;;;;;;;7.63;6.97;;;;;;;7.52;88.41;102194.69;5098384;28;20201;-70
2021/12/14 03:23:06;;;;;;;7.60;7.27;;;;;;;7.51;88.24;102216.41;5116801;28;20173;-70
2021/12/14 03:25:36;;;;;;;9.03;8.37;;;;;;;7.47;88.66;102201.63;5098495;28;20207;-70
2021/12/14 03:28:03;;;;;;;7.47;7.10;;;;;;;7.48;88.69;102205.97;5116574;28;20208;-70
2021/12/14 03:30:33;;;;;;;8.97;8.07;;;;;;;7.38;88.78;102194.75;5098836;28;20196;-70
2021/12/14 03:33:08;;;;;;;11.57;8.70;;;;;;;7.36;88.97;102194.75;5099177;28;20220;-70
2021/12/14 03:35:54;;;;;;;14.17;8.90;;;;;;;7.37;89.05;102206.91;5099079;28;20184;-73
2021/12/14 03:38:33;;;;;;;10.63;9.47;;;;;;;7.32;89.42;102208.66;5116565;28;20199;-70
2021/12/14 03:41:11;;;;;;;9.40;8.57;;;;;;;7.28;89.73;102212.13;5098105;28;20658;-70
2021/12/14 03:43:50;;;;;;;9.60;8.87;;;;;;;7.24;90.57;102226.06;5098000;28;20617;-70
2021/12/14 03:46:19;;;;;;;10.07;9.23;;;;;;;7.24;91.20;102218.25;5098336;28;20191;-70
2021/12/14 03:48:46;;;;;;;10.53;9.20;;;;;;;7.09;92.18;102228.69;5097923;28;20249;-70
2021/12/14 03:51:19;;;;;;;9.67;8.93;;;;;;;7.22;91.91;102225.19;5097939;28;20185;-70
2021/12/14 03:53:49;;;;;;;12.60;10.50;;;;;;;7.01;93.05;102227.84;5081831;28;20184;-70
2021/12/14 03:56:16;;;;;;;11.27;10.20;;;;;;;7.15;92.70;102221.75;5116120;28;20287;-70
2021/12/14 03:58:44;;;;;;;11.00;10.03;;;;;;;6.97;93.37;102220.91;5097680;28;20201;-70
2021/12/14 04:01:19;;;;;;;11.30;10.10;;;;;;;6.87;94.19;102215.72;5097758;28;20237;-73
2021/12/14 04:03:58;;;;;;;12.00;10.80;;;;;;;6.90;94.50;102225.25;5097921;28;20189;-70
2021/12/14 04:06:29;;;;;;;12.57;11.27;;;;;;;6.83;94.81;102233.94;5098437;28;20186;-70
2021/12/14 04:08:56;;;;;;;11.93;10.13;;;;;;;6.87;95.03;102236.56;5097520;28;20240;-70
2021/12/14 04:11:23;;;;;;;15.83;11.37;;;;;;;6.88;95.12;102229.63;5097553;28;20196;-70
2021/12/14 04:13:53;;;;;;;12.03;10.80;;;;;;;6.90;95.17;102233.94;5097421;28;20225;-70
2021/12/14 04:16:38;;;;;;;14.57;12.10;;;;;;;6.94;95.16;102224.41;5098072;28;20181;-70
2021/12/14 04:19:08;;;;;;;13.70;11.83;;;;;;;6.85;95.67;102227.00;5115724;28;20250;-70
2021/12/14 04:21:40;;;;;;;16.77;12.03;;;;;;;6.85;95.62;102219.19;5113950;28;20200;-70
2021/12/14 04:24:12;;;;;;;20.63;13.00;;;;;;;6.88;95.54;102216.59;5097236;28;20303;-70
2021/12/14 04:26:45;;;;;;;18.93;12.93;;;;;;;6.89;95.30;102227.00;5097154;28;20242;-70
2021/12/14 04:29:14;;;;;;;12.93;11.57;;;;;;;6.90;95.40;102231.34;5096790;28;20212;-70
2021/12/14 04:31:44;;;;;;;18.07;11.30;;;;;;;6.86;95.45;102240.03;5097138;28;20216;-70
2021/12/14 04:34:11;;;;;;;18.57;12.50;;;;;;;6.85;95.71;102247.81;5097152;28;20189;-70
2021/12/14 04:36:40;;;;;;;16.50;11.93;;;;;;;6.83;95.59;102244.38;5115696;28;20189;-70
2021/12/14 04:53:10;;;;;;;16.47;11.80;;;;;;;6.89;95.45;102232.22;5130843;27;20189;-73
2021/12/14 04:55:44;;;;;;;19.63;12.30;;;;;;;6.78;95.71;102222.66;5096606;28;20245;-73
2021/12/14 04:58:12;;;;;;;23.27;13.13;;;;;;;6.76;95.95;102243.50;5096575;28;20292;-70
2021/12/14 05:00:49;;;;;;;20.57;13.73;;;;;;;6.77;95.93;102229.63;5096804;28;20239;-70
2021/12/14 05:03:32;;;;;;;19.63;14.17;;;;;;;6.79;95.91;102238.31;5130714;27;20185;-70
2021/12/14 05:06:15;;;;;;;20.77;14.07;;;;;;;6.76;95.94;102232.22;5096735;28;20233;-70
2021/12/14 05:11:17;;;;;;;17.57;12.73;;;;;;;6.84;96.12;102235.69;5096655;28;20254;-70
2021/12/14 05:13:49;;;;;;;20.13;13.47;;;;;;;6.93;95.01;102240.00;5113626;28;20185;-70
2021/12/14 05:16:27;;;;;;;23.27;14.60;;;;;;;6.84;95.81;102235.69;5097153;28;20192;-70
2021/12/14 05:18:59;;;;;;;19.73;14.07;;;;;;;6.82;95.62;102237.44;5096730;28;20294;-70
2021/12/14 05:21:33;;;;;;;22.00;13.63;;;;;;;6.85;95.75;102238.28;5096204;28;20201;-70
2021/12/14 05:24:03;;;;;;;22.00;13.23;;;;;;;6.90;95.78;102235.69;5096110;28;20217;-70
2021/12/14 05:26:36;;;;;;;15.17;12.63;;;;;;;6.92;95.38;102225.25;5096428;28;20187;-70
2021/12/14 05:29:05;;;;;;;19.83;13.60;;;;;;;6.84;95.48;102223.53;5096005;28;20257;-70
2021/12/14 05:31:32;;;;;;;18.33;12.60;;;;;;;6.89;95.27;102226.13;5114251;28;20552;-70
2021/12/14 05:33:59;;;;;;;24.50;14.17;;;;;;;6.84;95.26;102223.53;5096146;28;20228;-69
2021/12/14 05:36:29;;;;;;;22.00;14.03;;;;;;;6.83;95.19;102215.72;5095961;28;20186;-69
2021/12/14 05:39:22;;;;;;;22.67;14.23;;;;;;;6.78;95.31;102226.13;5129876;27;20218;-70
2021/12/14 05:45:14;;;;;;;17.70;12.77;;;;;;;6.82;94.98;102227.00;5096548;28;20209;-70
2021/12/14 05:47:59;;;;;;;20.33;12.97;;;;;;;6.79;95.39;102227.03;5095739;28;20197;-73
2021/12/14 05:50:51;;;;;;;25.53;14.17;;;;;;;6.76;95.19;102214.88;5129887;27;20178;-73
2021/12/14 05:53:28;;;;;;;17.90;13.20;;;;;;;6.83;95.23;102208.78;5129763;27;20601;-70
2021/12/14 05:55:57;;;;;;;24.47;13.10;;;;;;;6.75;95.42;102213.13;5130982;27;20184;-73
2021/12/14 05:58:26;;;;;;;22.33;13.00;;;;;;;6.76;95.29;102207.06;5129734;27;20311;-73
2021/12/14 06:01:00;;;;;;;23.93;13.50;;;;;;;6.82;95.00;102217.47;5095522;28;20201;-73
2021/12/14 06:03:35;;;;;;;20.17;13.67;;;;;;;6.83;95.03;102218.31;5095601;28;20582;-74
2021/12/14 06:06:03;;;;;;;18.07;12.20;;;;;;;6.80;95.14;102219.22;5095411;28;20211;-73
2021/12/14 06:08:32;;;;;;;19.73;13.40;;;;;;;6.83;94.88;102226.13;5095267;28;20208;-73
2021/12/14 06:11:22;;;;;;;20.30;12.03;;;;;;;6.84;95.04;102231.34;5095711;28;20762;-73
2021/12/14 06:13:49;;;;;;;22.00;13.23;;;;;;;6.84;94.93;102226.13;5095470;28;20216;-74
2021/12/14 06:16:26;;;;;;;24.50;12.70;;;;;;;6.84;94.98;102235.69;5114285;28;20192;-74
2021/12/14 06:19:15;;;;;;;16.07;13.40;;;;;;;6.85;94.80;102235.66;5095864;28;20213;-73
2021/12/14 06:22:02;;;;;;;24.43;13.60;;;;;;;6.85;94.65;102233.06;5129602;28;20199;-73
2021/12/14 06:24:32;;;;;;;23.03;13.33;;;;;;;6.90;94.46;102226.13;5095312;28;20190;-76
2021/12/14 06:27:01;;;;;;;19.70;13.57;;;;;;;6.81;94.79;102230.50;5113350;28;20213;-73
2021/12/14 06:29:42;;;;;;;21.30;13.93;;;;;;;6.79;94.93;102219.22;5095284;28;20217;-73
2021/12/14 06:32:12;;;;;;;18.23;12.13;;;;;;;6.83;94.68;102229.59;5113796;28;20168;-73
2021/12/14 06:34:42;;;;;;;23.53;14.23;;;;;;;6.79;94.73;102229.63;5095265;28;20177;-73
2021/12/14 06:37:28;;;;;;;23.23;13.50;;;;;;;6.87;94.38;102228.75;5095229;28;20711;-70
2021/12/14 06:40:16;;;;;;;22.90;14.77;;;;;;;6.83;94.57;102233.94;5095565;28;20219;-69
2021/12/14 06:42:49;;;;;;;27.90;14.33;;;;;;;6.88;94.28;102234.81;5129262;28;20186;-69
2021/12/14 06:45:27;;;;;;;20.43;13.77;;;;;;;6.78;94.48;102244.34;5095113;28;20227;-69
2021/12/14 06:48:05;;;;;;;22.33;13.40;;;;;;;6.79;94.58;102245.25;5095091;28;20185;-70
2021/12/14 06:50:42;;;;;;;23.13;14.23;;;;;;;6.75;94.74;102257.38;5095752;28;20245;-73
2021/12/14 06:53:19;;;;;;;20.23;13.53;;;;;;;6.80;94.82;102270.41;5097195;28;20192;-73
2021/12/14 06:56:13;;;;;;;28.47;13.77;;;;;;;6.75;95.02;102283.41;5117229;28;20560;-73
2021/12/14 06:59:03;;;;;;;23.33;13.80;;;;;;;6.81;94.91;102283.41;5117015;28;20652;-70
2021/12/14 07:01:55;;;;;;;21.90;13.60;;;;;;;6.85;94.67;102279.94;5099149;28;20217;-70
2021/12/14 07:04:30;;;;;;;22.70;13.67;;;;;;;6.90;94.31;102266.91;5098601;28;20185;-70
2021/12/14 07:07:08;;;;;;;24.80;14.77;;;;;;;6.87;94.04;102270.41;5099277;28;20603;-70
2021/12/14 07:09:39;;;;;;;20.33;13.50;;;;;;;6.95;93.91;102274.72;5098658;28;20217;-70
2021/12/14 07:12:15;;;;;;;28.30;14.73;;;;;;;6.86;94.13;102271.28;5116812;28;20173;-70
2021/12/14 07:14:52;;;;;;;20.70;13.87;;;;;;;6.92;93.87;102269.50;5117139;28;20175;-70
2021/12/14 07:17:28;;;;;;;28.07;15.17;;;;;;;6.85;94.19;102273.84;5116828;28;20177;-73
2021/12/14 07:19:56;;;;;;;28.23;15.70;;;;;;;6.84;94.25;102270.38;5116748;28;20574;-70
2021/12/14 07:22:23;;;;;;;29.03;15.33;;;;;;;6.84;94.41;102280.81;5117534;28;20230;-70
2021/12/14 07:25:06;;;;;;;24.07;16.20;;;;;;;6.92;94.54;102288.59;5116549;28;20213;-70
2021/12/14 07:27:38;;;;;;;23.40;15.43;;;;;;;6.89;94.10;102288.63;5117145;28;20189;-70
2021/12/14 07:30:19;;;;;;;26.60;16.73;;;;;;;6.97;93.80;102302.50;5116459;28;20209;-70
2021/12/14 07:32:48;;;;;;;32.63;16.40;;;;;;;6.86;94.14;102302.53;5116683;28;20173;-70
2021/12/14 07:35:31;;;;;;;32.23;16.47;;;;;;;6.87;94.14;102313.81;5116883;28;20568;-70
2021/12/14 07:38:20;;;;;;;29.33;16.73;;;;;;;6.88;94.31;102319.00;5116884;28;20173;-70
2021/12/14 07:40:52;;;;;;;30.00;16.03;;;;;;;6.89;94.28;102322.47;5085238;28;20212;-70
2021/12/14 07:43:35;;;;;;;25.73;17.37;;;;;;;6.84;94.60;102322.47;5116727;28;20542;-73
2021/12/14 07:46:13;;;;;;;32.30;16.60;;;;;;;6.89;94.46;102323.34;5116510;28;20658;-73
2021/12/14 07:48:53;;;;;;;36.93;17.83;;;;;;;6.87;94.59;102325.06;5116190;28;20701;-70
2021/12/14 07:51:22;;;;;;;29.20;17.00;;;;;;;6.85;94.58;102324.19;5116157;28;20185;-71
2021/12/14 07:53:54;;;;;;;31.80;17.23;;;;;;;6.86;94.33;102323.34;5116062;28;20192;-71
2021/12/14 07:56:32;;;;;;;33.63;17.30;;;;;;;6.88;94.23;102336.34;5116564;28;20166;-74
2021/12/14 07:59:00;;;;;;;26.43;16.33;;;;;;;6.90;94.12;102329.41;5116258;28;20227;-74
2021/12/14 08:01:27;;;;;;;28.13;14.47;;;;;;;6.89;93.83;102343.28;5115956;28;20678;-75
2021/12/14 08:04:04;;;;;;;22.87;15.33;;;;;;;6.82;94.09;102341.56;5116162;28;20655;-75
2021/12/14 08:06:48;;;;;;;26.47;15.60;;;;;;;6.76;94.29;102350.22;5116062;28;20197;-76
2021/12/14 08:09:31;;;;;;;32.00;16.03;;;;;;;6.85;94.10;102350.22;5115917;28;20682;-75
2021/12/14 08:11:58;;;;;;;25.83;15.50;;;;;;;6.94;93.61;102349.38;5115813;28;20176;-75
2021/12/14 08:14:27;;;;;;;29.33;15.77;;;;;;;6.86;93.81;102353.72;5115746;28;20547;-75
2021/12/14 08:17:14;;;;;;;33.80;14.50;;;;;;;6.75;94.34;102358.91;5115705;28;20201;-75
2021/12/14 08:19:42;;;;;;;21.13;15.23;;;;;;;6.79;94.31;102360.66;5116015;28;20212;-75
2021/12/14 08:22:13;;;;;;;27.47;16.40;;;;;;;6.82;94.17;102358.03;5115659;28;20804;-75
2021/12/14 08:24:47;;;;;;;24.10;15.30;;;;;;;6.80;94.29;102364.13;5115870;28;20189;-75
2021/12/14 08:27:19;;;;;;;34.27;17.20;;;;;;;6.95;93.84;102363.25;5116132;28;20173;-75
2021/12/14 08:29:50;;;;;;;26.47;15.37;;;;;;;6.97;93.92;102364.13;5097336;28;20196;-75
2021/12/14 08:32:21;;;;;;;26.73;15.20;;;;;;;6.93;93.91;102364.97;5115428;28;20552;-75
2021/12/14 08:34:49;;;;;;;25.93;14.97;;;;;;;6.99;93.88;102360.63;5115336;28;20177;-75
2021/12/14 08:37:32;;;;;;;26.97;15.40;;;;;;;7.03;93.57;102353.72;5115623;28;20207;-75
2021/12/14 08:40:32;;;;;;;30.13;16.03;;;;;;;7.00;93.37;102356.31;5115470;28;20208;-75
2021/12/14 08:43:14;;;;;;;32.57;18.67;;;;;;;6.98;93.50;102350.22;5100073;28;20198;-75
2021/12/14 08:46:01;;;;;;;39.23;17.40;;;;;;;6.98;93.40;102352.84;5115327;28;20216;-75
2021/12/14 08:48:38;;;;;;;35.73;18.00;;;;;;;6.90;93.95;102348.50;5114834;28;20209;-75
2021/12/14 08:51:13;;;;;;;32.67;16.90;;;;;;;7.05;93.72;102350.22;5115300;28;20178;-75
2021/12/14 08:54:09;;;;;;;29.33;15.47;;;;;;;7.14;93.39;102349.34;5115192;28;20638;-75
2021/12/14 08:57:08;;;;;;;28.27;15.80;;;;;;;7.16;93.43;102347.63;5115004;28;20665;-75
2021/12/14 08:59:38;;;;;;;30.70;16.27;;;;;;;7.08;92.88;102355.47;5090081;28;20243;-75
2021/12/14 09:02:08;;;;;;;26.77;16.30;;;;;;;7.05;92.94;102349.38;5114674;28;20181;-75
2021/12/14 09:04:40;;;;;;;27.07;15.60;;;;;;;7.03;93.12;102348.50;5115277;28;20180;-75
2021/12/14 09:07:19;;;;;;;25.13;14.20;;;;;;;6.93;93.59;102354.56;5114655;28;20193;-75
2021/12/14 09:09:45;;;;;;;28.10;15.13;;;;;;;6.95;93.52;102356.31;5114683;28;20575;-75
2021/12/14 09:12:17;;;;;;;28.97;14.67;;;;;;;7.01;93.21;102358.94;5114896;28;20544;-74
2021/12/14 09:14:46;;;;;;;26.27;14.40;;;;;;;7.06;93.07;102358.91;5114889;28;20538;-72
2021/12/14 09:17:16;;;;;;;18.77;13.23;;;;;;;7.01;93.11;102355.47;5096091;28;20540;-74
2021/12/14 09:19:48;;;;;;;28.80;14.67;;;;;;;6.98;93.30;102353.69;5115460;28;20211;-75
2021/12/14 09:22:21;;;;;;;24.67;14.27;;;;;;;7.06;93.14;102354.56;5114541;28;20188;-74
2021/12/14 09:24:49;;;;;;;24.73;16.07;;;;;;;7.00;93.28;102348.50;5114977;28;20521;-74
2021/12/14 09:27:20;;;;;;;22.43;14.63;;;;;;;7.03;93.37;102361.53;5114271;28;20208;-75
2021/12/14 09:29:48;;;;;;;27.80;15.20;;;;;;;7.03;93.32;102353.72;5114938;28;20234;-75
2021/12/14 09:32:21;;;;;;;29.37;17.10;;;;;;;7.14;93.10;102355.47;5114183;28;20189;-75
2021/12/14 09:34:47;;;;;;;24.83;16.83;;;;;;;7.16;93.04;102360.66;5114526;28;20165;-75
2021/12/14 09:37:16;;;;;;;39.30;17.17;;;;;;;7.15;93.21;102371.94;5114196;28;20529;-75
2021/12/14 09:39:47;;;;;;;31.67;17.30;;;;;;;7.14;93.04;102370.19;5095769;28;20216;-75
2021/12/14 09:42:19;;;;;;;30.97;16.90;;;;;;;7.22;92.65;102378.88;5114426;28;20524;-75
2021/12/14 09:44:50;;;;;;;35.20;17.23;;;;;;;7.15;92.93;102377.16;5114619;28;20177;-75
2021/12/14 09:47:21;;;;;;;33.80;17.37;;;;;;;7.21;92.70;102379.72;5114275;28;20544;-74
2021/12/14 09:49:49;;;;;;;28.07;15.53;;;;;;;7.21;92.46;102379.72;5113880;28;20220;-75
2021/12/14 09:52:20;;;;;;;32.03;17.57;;;;;;;7.19;92.82;102373.66;5114123;28;20192;-75
2021/12/14 09:54:48;;;;;;;34.27;17.83;;;;;;;7.22;92.67;102378.88;5114257;28;20169;-75
2021/12/14 09:57:31;;;;;;;37.17;16.90;;;;;;;7.29;92.36;102375.41;5114126;28;20181;-75
2021/12/14 10:00:01;;;;;;;30.97;18.60;;;;;;;7.19;92.64;102371.06;5114088;28;20220;-75
2021/12/14 10:02:40;;;;;;;33.50;16.20;;;;;;;7.23;92.41;102382.38;5113845;28;20174;-75
2021/12/14 10:05:21;;;;;;;32.60;17.97;;;;;;;7.21;92.31;102387.53;5113910;28;20181;-75
2021/12/14 10:07:49;;;;;;;30.43;17.53;;;;;;;7.22;91.93;102380.63;5113863;28;20569;-75
2021/12/14 10:10:18;;;;;;;29.93;15.67;;;;;;;7.24;92.69;102390.16;5113949;28;20545;-75
2021/12/14 10:12:49;;;;;;;30.77;16.53;;;;;;;7.31;92.31;102376.28;5113656;28;20203;-75
2021/12/14 10:15:28;;;;;;;32.73;18.47;;;;;;;7.28;92.10;102378.84;5113939;28;20177;-75
2021/12/14 10:17:58;;;;;;;37.23;17.27;;;;;;;7.42;92.03;102364.06;5095361;28;20185;-74
2021/12/14 10:20:34;;;;;;;30.63;16.27;;;;;;;7.55;91.90;102366.66;5113703;28;20648;-75
2021/12/14 10:23:02;;;;;;;26.97;16.27;;;;;;;7.59;91.59;102363.19;5129530;28;20184;-73
2021/12/14 10:25:29;;;;;;;34.97;17.13;;;;;;;7.62;91.91;102360.56;5095733;28;20181;-72
2021/12/14 10:27:57;;;;;;;39.77;19.37;;;;;;;7.70;91.22;102361.41;5114463;28;20192;-72
2021/12/14 10:30:32;;;;;;;32.73;17.37;;;;;;;7.75;91.10;102375.31;5099522;28;20292;-72
2021/12/14 10:33:00;;;;;;;38.03;17.80;;;;;;;7.71;90.69;102365.75;5118001;28;20633;-72
2021/12/14 10:35:36;;;;;;;32.73;16.67;;;;;;;7.54;91.20;102364.94;5099625;28;20196;-72
2021/12/14 10:38:19;;;;;;;28.47;17.87;;;;;;;7.51;91.19;102359.75;5118101;28;20176;-72
2021/12/14 10:43:37;;;;;;;35.23;19.37;;;;;;;7.57;91.20;102360.59;5117885;28;20187;-75
2021/12/14 10:46:10;;;;;;;30.93;18.40;;;;;;;7.58;91.01;102351.03;5117501;28;20201;-75
2021/12/14 10:48:40;;;;;;;39.17;20.20;;;;;;;7.57;91.22;102354.50;5133304;27;20201;-72
2021/12/14 10:51:10;;;;;;;34.87;20.73;;;;;;;7.62;91.01;102360.56;5117176;28;20552;-72
2021/12/14 10:53:42;;;;;;;57.43;22.83;;;;;;;7.62;91.06;102357.97;5117564;28;20173;-72
2021/12/14 10:56:41;;;;;;;36.37;20.00;;;;;;;7.67;91.07;102351.88;5117506;28;20174;-72
2021/12/14 10:59:12;;;;;;;42.57;20.70;;;;;;;7.69;91.04;102352.72;5117397;28;20201;-72
2021/12/14 11:01:39;;;;;;;36.37;19.63;;;;;;;7.63;91.36;102352.72;5117127;28;20176;-72
2021/12/14 11:04:11;;;;;;;38.93;19.23;;;;;;;7.79;90.99;102353.59;5117244;28;20192;-72
2021/12/14 11:06:44;;;;;;;31.83;18.97;;;;;;;7.78;90.56;102351.81;5117009;28;20192;-75
2021/12/14 11:12:19;;;;;;;31.60;17.80;;;;;;;7.78;90.87;102338.78;5117459;28;20177;-76
2021/12/14 11:14:49;;;;;;;34.73;18.83;;;;;;;7.86;90.61;102341.34;5116967;28;20183;-75
2021/12/14 11:20:11;;;;;;;35.33;18.30;;;;;;;7.92;91.18;102337.00;5098343;28;20221;-73
2021/12/14 11:22:49;;;;;;;30.87;18.40;;;;;;;7.97;91.07;102339.59;5115863;28;20183;-72
2021/12/14 11:25:40;;;;;;;26.90;16.37;;;;;;;8.07;90.71;102327.34;5115329;28;20185;-72
2021/12/14 11:28:15;;;;;;;29.53;16.90;;;;;;;8.18;90.59;102328.19;5097214;28;20185;-72
2021/12/14 11:30:52;;;;;;;34.53;19.47;;;;;;;8.31;89.68;102329.84;5097950;28;20538;-72
2021/12/14 11:33:27;;;;;;;33.60;17.90;;;;;;;8.36;89.41;102327.22;5115530;28;20188;-72
2021/12/14 11:36:05;;;;;;;40.80;18.37;;;;;;;8.38;88.92;102331.59;5115751;28;20170;-72
2021/12/14 11:38:38;;;;;;;29.60;18.40;;;;;;;8.18;89.06;102328.19;5115217;28;20559;-72
2021/12/14 11:41:37;;;;;;;35.87;19.97;;;;;;;8.15;89.42;102328.22;5097948;28;20186;-72
2021/12/14 11:44:06;;;;;;;30.20;18.73;;;;;;;8.13;89.96;102335.16;5080975;28;20201;-72
2021/12/14 11:46:46;;;;;;;36.87;19.70;;;;;;;7.93;90.29;102332.63;5114917;28;20208;-72
2021/12/14 11:49:13;;;;;;;34.70;18.40;;;;;;;7.94;89.91;102323.97;5096849;28;20209;-72
2021/12/14 11:51:41;;;;;;;40.93;19.47;;;;;;;7.88;90.24;102317.03;5115671;28;20197;-72
2021/12/14 11:54:08;;;;;;;40.37;18.60;;;;;;;7.97;90.43;102324.81;5115067;28;20185;-72
2021/12/14 11:56:36;;;;;;;57.87;19.33;;;;;;;8.04;90.52;102322.16;5115921;28;20274;-71
2021/12/14 11:59:07;;;;;;;39.93;19.47;;;;;;;8.02;90.24;102322.19;5115064;28;20209;-71
2021/12/14 12:01:53;;;;;;;38.17;19.13;;;;;;;8.19;90.03;102317.72;5115081;28;20201;-72
2021/12/14 12:04:29;;;;;;;43.13;18.80;;;;;;;8.18;89.82;102320.34;5115630;28;20186;-71
2021/12/14 12:09:32;;;;;;;36.23;20.47;;;;;;;8.04;89.53;102324.78;5115262;28;20588;-72
2021/12/14 12:12:04;;;;;;;37.00;19.67;;;;;;;8.06;89.78;102325.63;5115204;28;20185;-71
2021/12/14 12:14:49;;;;;;;40.40;19.83;;;;;;;7.89;90.63;102331.81;5114938;28;20191;-71
2021/12/14 12:17:29;;;;;;;50.20;22.13;;;;;;;7.79;90.54;102326.66;5115407;28;20173;-71
2021/12/14 12:20:14;;;;;;;49.27;22.60;;;;;;;7.74;90.68;102324.03;5114620;28;20204;-71
2021/12/14 12:22:43;;;;;;;56.57;23.90;;;;;;;7.79;90.61;102327.50;5116093;28;20174;-71
2021/12/14 12:25:34;;;;;;;52.37;22.90;;;;;;;7.81;90.73;102328.34;5116749;28;20177;-71
2021/12/14 12:28:09;;;;;;;49.10;24.50;;;;;;;7.78;90.82;102325.75;5097337;28;20193;-71
2021/12/14 12:30:57;;;;;;;54.83;22.33;;;;;;;7.74;90.94;102331.88;5114870;28;20177;-71
2021/12/14 12:33:25;;;;;;;51.43;22.83;;;;;;;7.80;90.84;102328.38;5115653;28;20178;-71
2021/12/14 12:36:01;;;;;;;51.37;24.03;;;;;;;7.78;90.84;102333.56;5115360;28;20203;-71